Manilva, Spain
Current Conditions -  °F | °C
As of 8:50 AM on Monday 24 Nov 2014 (Local Time) from LXGB Reporting Station
Broken Clouds Broken Clouds  
Wind Chill: 63°   Ceiling: 12000
Heat Index: 63°   Visibility: 6mi
Dew Point: 61°   Wind: 5mph
Humidity: 94%   Direction: 100°E
Pressure: 29.94"   Gusts: NA
Location:  36.38°N, 5.25°W
Report Text: LXGB 240750Z 10004KT 9999 FEW015 BKN120 17/16 Q1014 NOSIG
Loading
Personal Weather Stations






























Interactive Weather Map New forecast layout! Learn more

10-Day Weather Forecast

Advertisements
Track Severe Weather on mobile